sensor_id;sensor_type;location;lat;lon;timestamp;P1;durP1;ratioP1;P2;durP2;ratioP2
69730;SDS011;56996;48.138;11.538;2022-10-16T00:01:31;7.40;;;2.40;;
69730;SDS011;56996;48.138;11.538;2022-10-16T00:03:59;6.20;;;2.20;;
69730;SDS011;56996;48.138;11.538;2022-10-16T00:06:28;7.00;;;2.40;;
69730;SDS011;56996;48.138;11.538;2022-10-16T00:08:55;6.40;;;2.20;;
69730;SDS011;56996;48.138;11.538;2022-10-16T00:11:26;5.70;;;1.90;;
69730;SDS011;56996;48.138;11.538;2022-10-16T00:13:58;5.80;;;1.90;;
69730;SDS011;56996;48.138;11.538;2022-10-16T00:16:27;6.00;;;2.10;;
69730;SDS011;56996;48.138;11.538;2022-10-16T00:18:54;8.00;;;2.20;;
69730;SDS011;56996;48.138;11.538;2022-10-16T00:21:24;6.60;;;2.00;;
69730;SDS011;56996;48.138;11.538;2022-10-16T00:23:57;9.10;;;1.90;;
69730;SDS011;56996;48.138;11.538;2022-10-16T00:26:26;6.20;;;2.40;;
69730;SDS011;56996;48.138;11.538;2022-10-16T00:28:54;4.20;;;1.60;;
69730;SDS011;56996;48.138;11.538;2022-10-16T00:31:22;5.90;;;2.20;;
69730;SDS011;56996;48.138;11.538;2022-10-16T00:33:49;7.30;;;2.30;;
69730;SDS011;56996;48.138;11.538;2022-10-16T00:36:22;7.20;;;2.00;;
69730;SDS011;56996;48.138;11.538;2022-10-16T00:38:54;6.40;;;2.00;;
69730;SDS011;56996;48.138;11.538;2022-10-16T00:41:24;6.50;;;2.10;;
69730;SDS011;56996;48.138;11.538;2022-10-16T00:43:53;5.80;;;2.10;;
69730;SDS011;56996;48.138;11.538;2022-10-16T00:46:41;6.70;;;1.70;;
69730;SDS011;56996;48.138;11.538;2022-10-16T00:49:12;4.40;;;1.50;;
69730;SDS011;56996;48.138;11.538;2022-10-16T00:51:43;7.60;;;1.90;;
69730;SDS011;56996;48.138;11.538;2022-10-16T00:54:16;5.60;;;1.90;;
69730;SDS011;56996;48.138;11.538;2022-10-16T00:56:46;8.40;;;2.00;;
69730;SDS011;56996;48.138;11.538;2022-10-16T00:59:23;6.30;;;1.80;;
69730;SDS011;56996;48.138;11.538;2022-10-16T01:01:53;6.00;;;1.70;;
69730;SDS011;56996;48.138;11.538;2022-10-16T01:04:21;5.00;;;1.60;;
69730;SDS011;56996;48.138;11.538;2022-10-16T01:07:02;5.50;;;1.90;;
69730;SDS011;56996;48.138;11.538;2022-10-16T01:09:50;6.00;;;1.70;;
69730;SDS011;56996;48.138;11.538;2022-10-16T01:20:35;5.00;;;1.50;;
69730;SDS011;56996;48.138;11.538;2022-10-16T01:26:31;5.00;;;1.50;;
69730;SDS011;56996;48.138;11.538;2022-10-16T01:31:53;5.80;;;1.50;;
69730;SDS011;56996;48.138;11.538;2022-10-16T01:34:33;6.90;;;1.90;;
69730;SDS011;56996;48.138;11.538;2022-10-16T01:37:06;5.90;;;1.80;;
69730;SDS011;56996;48.138;11.538;2022-10-16T01:39:38;5.70;;;1.70;;
69730;SDS011;56996;48.138;11.538;2022-10-16T01:44:41;5.80;;;1.80;;
69730;SDS011;56996;48.138;11.538;2022-10-16T01:47:11;4.80;;;1.50;;
69730;SDS011;56996;48.138;11.538;2022-10-16T01:49:40;4.60;;;1.50;;
69730;SDS011;56996;48.138;11.538;2022-10-16T01:52:17;5.20;;;1.40;;
69730;SDS011;56996;48.138;11.538;2022-10-16T01:54:49;4.80;;;1.50;;
69730;SDS011;56996;48.138;11.538;2022-10-16T01:57:20;5.80;;;1.50;;
69730;SDS011;56996;48.138;11.538;2022-10-16T01:59:51;4.30;;;1.20;;
69730;SDS011;56996;48.138;11.538;2022-10-16T02:02:22;4.70;;;1.10;;
69730;SDS011;56996;48.138;11.538;2022-10-16T02:04:57;4.10;;;1.10;;
69730;SDS011;56996;48.138;11.538;2022-10-16T02:07:25;4.90;;;1.30;;
69730;SDS011;56996;48.138;11.538;2022-10-16T02:09:53;5.30;;;1.30;;
69730;SDS011;56996;48.138;11.538;2022-10-16T02:12:27;4.70;;;1.40;;
69730;SDS011;56996;48.138;11.538;2022-10-16T02:14:56;5.00;;;1.20;;
69730;SDS011;56996;48.138;11.538;2022-10-16T02:17:24;4.00;;;1.10;;
69730;SDS011;56996;48.138;11.538;2022-10-16T02:19:53;4.50;;;1.20;;
69730;SDS011;56996;48.138;11.538;2022-10-16T02:22:36;4.40;;;1.10;;
69730;SDS011;56996;48.138;11.538;2022-10-16T02:25:22;4.10;;;1.00;;
69730;SDS011;56996;48.138;11.538;2022-10-16T02:30:56;5.20;;;1.30;;
69730;SDS011;56996;48.138;11.538;2022-10-16T02:33:25;4.00;;;1.10;;
69730;SDS011;56996;48.138;11.538;2022-10-16T02:35:54;4.10;;;1.30;;
69730;SDS011;56996;48.138;11.538;2022-10-16T02:38:21;4.90;;;1.30;;
69730;SDS011;56996;48.138;11.538;2022-10-16T02:40:50;4.30;;;1.10;;
69730;SDS011;56996;48.138;11.538;2022-10-16T02:43:17;3.30;;;0.90;;
69730;SDS011;56996;48.138;11.538;2022-10-16T02:45:44;5.50;;;1.40;;
69730;SDS011;56996;48.138;11.538;2022-10-16T02:48:11;4.50;;;1.30;;
69730;SDS011;56996;48.138;11.538;2022-10-16T02:50:37;4.60;;;1.10;;
69730;SDS011;56996;48.138;11.538;2022-10-16T02:53:04;4.20;;;1.10;;
69730;SDS011;56996;48.138;11.538;2022-10-16T02:55:30;4.10;;;1.40;;
69730;SDS011;56996;48.138;11.538;2022-10-16T02:57:57;7.10;;;1.10;;
69730;SDS011;56996;48.138;11.538;2022-10-16T03:00:23;5.60;;;1.20;;
69730;SDS011;56996;48.138;11.538;2022-10-16T03:02:50;4.70;;;1.10;;
69730;SDS011;56996;48.138;11.538;2022-10-16T03:05:17;4.10;;;1.10;;
69730;SDS011;56996;48.138;11.538;2022-10-16T03:07:43;5.40;;;1.30;;
69730;SDS011;56996;48.138;11.538;2022-10-16T03:10:10;4.20;;;1.10;;
69730;SDS011;56996;48.138;11.538;2022-10-16T03:12:37;3.90;;;1.10;;
69730;SDS011;56996;48.138;11.538;2022-10-16T03:15:03;5.00;;;1.30;;
69730;SDS011;56996;48.138;11.538;2022-10-16T03:17:31;5.20;;;1.50;;
69730;SDS011;56996;48.138;11.538;2022-10-16T03:19:58;4.30;;;1.20;;
69730;SDS011;56996;48.138;11.538;2022-10-16T03:22:24;5.00;;;1.20;;
69730;SDS011;56996;48.138;11.538;2022-10-16T03:24:51;4.60;;;1.20;;
69730;SDS011;56996;48.138;11.538;2022-10-16T03:27:18;4.20;;;1.30;;
69730;SDS011;56996;48.138;11.538;2022-10-16T03:29:45;4.90;;;1.20;;
69730;SDS011;56996;48.138;11.538;2022-10-16T03:32:11;4.00;;;1.20;;
69730;SDS011;56996;48.138;11.538;2022-10-16T03:34:38;5.40;;;1.40;;
69730;SDS011;56996;48.138;11.538;2022-10-16T03:37:04;4.80;;;1.30;;
69730;SDS011;56996;48.138;11.538;2022-10-16T03:39:31;6.20;;;1.30;;
69730;SDS011;56996;48.138;11.538;2022-10-16T03:41:57;4.10;;;1.00;;
69730;SDS011;56996;48.138;11.538;2022-10-16T03:44:24;4.60;;;1.40;;
69730;SDS011;56996;48.138;11.538;2022-10-16T03:46:51;5.40;;;1.20;;
69730;SDS011;56996;48.138;11.538;2022-10-16T03:49:17;5.60;;;1.20;;
69730;SDS011;56996;48.138;11.538;2022-10-16T03:51:44;4.00;;;1.20;;
69730;SDS011;56996;48.138;11.538;2022-10-16T03:54:10;3.70;;;1.20;;
69730;SDS011;56996;48.138;11.538;2022-10-16T03:56:38;4.80;;;1.30;;
69730;SDS011;56996;48.138;11.538;2022-10-16T03:59:04;5.80;;;1.10;;
69730;SDS011;56996;48.138;11.538;2022-10-16T04:01:31;5.00;;;1.30;;
69730;SDS011;56996;48.138;11.538;2022-10-16T04:03:57;5.60;;;2.00;;
69730;SDS011;56996;48.138;11.538;2022-10-16T04:06:24;4.40;;;1.30;;
69730;SDS011;56996;48.138;11.538;2022-10-16T04:08:51;5.30;;;1.60;;
69730;SDS011;56996;48.138;11.538;2022-10-16T04:11:17;5.00;;;1.30;;
69730;SDS011;56996;48.138;11.538;2022-10-16T04:13:44;4.80;;;1.40;;
69730;SDS011;56996;48.138;11.538;2022-10-16T04:16:11;6.10;;;1.30;;
69730;SDS011;56996;48.138;11.538;2022-10-16T04:18:37;5.90;;;1.60;;
69730;SDS011;56996;48.138;11.538;2022-10-16T04:21:05;3.70;;;1.10;;
69730;SDS011;56996;48.138;11.538;2022-10-16T04:23:33;4.10;;;1.00;;
69730;SDS011;56996;48.138;11.538;2022-10-16T04:26:00;4.40;;;1.40;;
69730;SDS011;56996;48.138;11.538;2022-10-16T04:28:27;4.90;;;1.40;;
69730;SDS011;56996;48.138;11.538;2022-10-16T04:30:54;3.80;;;1.00;;
69730;SDS011;56996;48.138;11.538;2022-10-16T04:33:21;5.40;;;1.30;;
69730;SDS011;56996;48.138;11.538;2022-10-16T04:35:48;5.50;;;1.20;;
69730;SDS011;56996;48.138;11.538;2022-10-16T04:38:14;4.40;;;1.10;;
69730;SDS011;56996;48.138;11.538;2022-10-16T04:40:42;4.90;;;1.30;;
69730;SDS011;56996;48.138;11.538;2022-10-16T04:43:09;4.50;;;1.20;;
69730;SDS011;56996;48.138;11.538;2022-10-16T04:45:35;4.50;;;1.10;;
69730;SDS011;56996;48.138;11.538;2022-10-16T04:48:02;4.10;;;1.10;;
69730;SDS011;56996;48.138;11.538;2022-10-16T04:50:29;3.60;;;0.90;;
69730;SDS011;56996;48.138;11.538;2022-10-16T04:53:06;4.30;;;1.10;;
69730;SDS011;56996;48.138;11.538;2022-10-16T04:55:33;4.00;;;1.10;;
69730;SDS011;56996;48.138;11.538;2022-10-16T04:58:00;4.30;;;1.10;;
69730;SDS011;56996;48.138;11.538;2022-10-16T05:00:27;4.30;;;1.10;;
69730;SDS011;56996;48.138;11.538;2022-10-16T05:02:53;4.20;;;1.10;;
69730;SDS011;56996;48.138;11.538;2022-10-16T05:05:20;5.10;;;1.30;;
69730;SDS011;56996;48.138;11.538;2022-10-16T05:07:47;4.10;;;1.20;;
69730;SDS011;56996;48.138;11.538;2022-10-16T05:10:16;6.30;;;1.20;;
69730;SDS011;56996;48.138;11.538;2022-10-16T05:12:43;4.70;;;1.30;;
69730;SDS011;56996;48.138;11.538;2022-10-16T05:15:10;3.70;;;0.90;;
69730;SDS011;56996;48.138;11.538;2022-10-16T05:17:37;4.70;;;1.40;;
69730;SDS011;56996;48.138;11.538;2022-10-16T05:20:10;5.60;;;1.20;;
69730;SDS011;56996;48.138;11.538;2022-10-16T05:22:38;4.00;;;1.10;;
69730;SDS011;56996;48.138;11.538;2022-10-16T05:25:05;5.40;;;1.30;;
69730;SDS011;56996;48.138;11.538;2022-10-16T05:27:31;5.20;;;1.40;;
69730;SDS011;56996;48.138;11.538;2022-10-16T05:29:58;4.70;;;1.50;;
69730;SDS011;56996;48.138;11.538;2022-10-16T05:32:25;5.30;;;1.20;;
69730;SDS011;56996;48.138;11.538;2022-10-16T05:34:51;6.10;;;1.40;;
69730;SDS011;56996;48.138;11.538;2022-10-16T05:37:18;4.90;;;1.30;;
69730;SDS011;56996;48.138;11.538;2022-10-16T05:39:45;6.10;;;1.30;;
69730;SDS011;56996;48.138;11.538;2022-10-16T05:42:11;7.10;;;1.40;;
69730;SDS011;56996;48.138;11.538;2022-10-16T05:44:38;4.00;;;1.10;;
69730;SDS011;56996;48.138;11.538;2022-10-16T05:47:05;4.60;;;1.70;;
69730;SDS011;56996;48.138;11.538;2022-10-16T05:49:31;5.40;;;1.30;;
69730;SDS011;56996;48.138;11.538;2022-10-16T05:52:01;5.10;;;1.50;;
69730;SDS011;56996;48.138;11.538;2022-10-16T05:54:27;4.90;;;1.50;;
69730;SDS011;56996;48.138;11.538;2022-10-16T05:56:54;6.70;;;1.20;;
69730;SDS011;56996;48.138;11.538;2022-10-16T05:59:21;4.80;;;1.40;;
69730;SDS011;56996;48.138;11.538;2022-10-16T06:01:47;4.80;;;1.40;;
69730;SDS011;56996;48.138;11.538;2022-10-16T06:04:14;4.70;;;1.50;;
69730;SDS011;56996;48.138;11.538;2022-10-16T06:06:40;6.60;;;1.70;;
69730;SDS011;56996;48.138;11.538;2022-10-16T06:09:07;8.30;;;1.60;;
69730;SDS011;56996;48.138;11.538;2022-10-16T06:11:33;7.40;;;1.70;;
69730;SDS011;56996;48.138;11.538;2022-10-16T06:14:01;4.90;;;1.50;;
69730;SDS011;56996;48.138;11.538;2022-10-16T06:16:34;5.90;;;1.40;;
69730;SDS011;56996;48.138;11.538;2022-10-16T06:19:01;5.00;;;1.60;;
69730;SDS011;56996;48.138;11.538;2022-10-16T06:21:30;6.40;;;1.60;;
69730;SDS011;56996;48.138;11.538;2022-10-16T06:23:57;5.40;;;1.70;;
69730;SDS011;56996;48.138;11.538;2022-10-16T06:26:27;6.40;;;1.80;;
69730;SDS011;56996;48.138;11.538;2022-10-16T06:28:57;5.20;;;1.70;;
69730;SDS011;56996;48.138;11.538;2022-10-16T06:31:25;5.40;;;1.60;;
69730;SDS011;56996;48.138;11.538;2022-10-16T06:33:57;5.30;;;1.60;;
69730;SDS011;56996;48.138;11.538;2022-10-16T06:36:24;6.50;;;2.10;;
69730;SDS011;56996;48.138;11.538;2022-10-16T06:38:52;6.90;;;2.10;;
69730;SDS011;56996;48.138;11.538;2022-10-16T06:41:21;5.30;;;1.60;;
69730;SDS011;56996;48.138;11.538;2022-10-16T06:43:49;6.50;;;1.90;;
69730;SDS011;56996;48.138;11.538;2022-10-16T06:46:19;7.10;;;2.00;;
69730;SDS011;56996;48.138;11.538;2022-10-16T06:48:47;5.30;;;2.00;;
69730;SDS011;56996;48.138;11.538;2022-10-16T06:51:16;6.40;;;2.20;;
69730;SDS011;56996;48.138;11.538;2022-10-16T06:53:46;5.80;;;1.80;;
69730;SDS011;56996;48.138;11.538;2022-10-16T06:56:33;7.60;;;1.90;;
69730;SDS011;56996;48.138;11.538;2022-10-16T06:59:01;6.60;;;2.10;;
69730;SDS011;56996;48.138;11.538;2022-10-16T07:01:29;6.90;;;2.20;;
69730;SDS011;56996;48.138;11.538;2022-10-16T07:03:56;7.20;;;2.10;;
69730;SDS011;56996;48.138;11.538;2022-10-16T07:06:25;5.70;;;1.90;;
69730;SDS011;56996;48.138;11.538;2022-10-16T07:08:53;7.10;;;2.30;;
69730;SDS011;56996;48.138;11.538;2022-10-16T07:11:22;6.40;;;2.20;;
69730;SDS011;56996;48.138;11.538;2022-10-16T07:13:50;6.00;;;2.10;;
69730;SDS011;56996;48.138;11.538;2022-10-16T07:16:32;6.80;;;2.30;;
69730;SDS011;56996;48.138;11.538;2022-10-16T07:19:01;6.70;;;2.70;;
69730;SDS011;56996;48.138;11.538;2022-10-16T07:21:31;6.30;;;2.30;;
69730;SDS011;56996;48.138;11.538;2022-10-16T07:24:04;8.50;;;2.50;;
69730;SDS011;56996;48.138;11.538;2022-10-16T07:26:35;6.80;;;2.40;;
69730;SDS011;56996;48.138;11.538;2022-10-16T07:29:02;6.10;;;1.90;;
69730;SDS011;56996;48.138;11.538;2022-10-16T07:31:30;5.50;;;1.90;;
69730;SDS011;56996;48.138;11.538;2022-10-16T07:33:58;5.50;;;1.90;;
69730;SDS011;56996;48.138;11.538;2022-10-16T07:36:26;6.30;;;2.10;;
69730;SDS011;56996;48.138;11.538;2022-10-16T07:38:53;6.60;;;2.10;;
69730;SDS011;56996;48.138;11.538;2022-10-16T07:41:26;5.80;;;2.10;;
69730;SDS011;56996;48.138;11.538;2022-10-16T07:43:53;7.80;;;2.10;;
69730;SDS011;56996;48.138;11.538;2022-10-16T07:46:22;5.20;;;1.90;;
69730;SDS011;56996;48.138;11.538;2022-10-16T07:48:50;8.10;;;2.40;;
69730;SDS011;56996;48.138;11.538;2022-10-16T07:51:18;6.00;;;2.00;;
69730;SDS011;56996;48.138;11.538;2022-10-16T07:53:47;5.60;;;1.80;;
69730;SDS011;56996;48.138;11.538;2022-10-16T07:56:14;6.40;;;1.90;;
69730;SDS011;56996;48.138;11.538;2022-10-16T07:58:42;6.10;;;1.80;;
69730;SDS011;56996;48.138;11.538;2022-10-16T08:01:11;7.00;;;2.00;;
69730;SDS011;56996;48.138;11.538;2022-10-16T08:03:48;5.40;;;1.70;;
69730;SDS011;56996;48.138;11.538;2022-10-16T08:06:16;5.40;;;1.70;;
69730;SDS011;56996;48.138;11.538;2022-10-16T08:08:49;5.10;;;1.50;;
69730;SDS011;56996;48.138;11.538;2022-10-16T08:11:16;5.20;;;1.50;;
69730;SDS011;56996;48.138;11.538;2022-10-16T08:13:43;5.40;;;1.90;;
69730;SDS011;56996;48.138;11.538;2022-10-16T08:16:09;6.00;;;1.80;;
69730;SDS011;56996;48.138;11.538;2022-10-16T08:18:40;5.10;;;1.60;;
69730;SDS011;56996;48.138;11.538;2022-10-16T08:21:12;5.50;;;1.60;;
69730;SDS011;56996;48.138;11.538;2022-10-16T08:23:46;5.20;;;1.60;;
69730;SDS011;56996;48.138;11.538;2022-10-16T08:26:20;4.80;;;1.40;;
69730;SDS011;56996;48.138;11.538;2022-10-16T08:28:49;4.60;;;1.40;;
69730;SDS011;56996;48.138;11.538;2022-10-16T08:31:17;7.00;;;1.30;;
69730;SDS011;56996;48.138;11.538;2022-10-16T08:33:45;5.20;;;1.60;;
69730;SDS011;56996;48.138;11.538;2022-10-16T08:36:14;5.30;;;1.70;;
69730;SDS011;56996;48.138;11.538;2022-10-16T08:38:42;4.20;;;1.30;;
69730;SDS011;56996;48.138;11.538;2022-10-16T08:41:28;4.90;;;1.60;;
69730;SDS011;56996;48.138;11.538;2022-10-16T08:47:19;4.60;;;1.40;;
69730;SDS011;56996;48.138;11.538;2022-10-16T08:50:00;5.10;;;1.50;;
69730;SDS011;56996;48.138;11.538;2022-10-16T08:52:34;5.10;;;1.60;;
69730;SDS011;56996;48.138;11.538;2022-10-16T08:55:03;4.50;;;1.50;;
69730;SDS011;56996;48.138;11.538;2022-10-16T08:57:31;4.70;;;1.70;;
69730;SDS011;56996;48.138;11.538;2022-10-16T09:00:08;4.70;;;1.80;;
69730;SDS011;56996;48.138;11.538;2022-10-16T09:02:51;4.50;;;1.80;;
69730;SDS011;56996;48.138;11.538;2022-10-16T09:05:42;4.20;;;1.50;;
69730;SDS011;56996;48.138;11.538;2022-10-16T09:08:30;4.50;;;2.10;;
69730;SDS011;56996;48.138;11.538;2022-10-16T09:16:44;5.00;;;2.50;;
69730;SDS011;56996;48.138;11.538;2022-10-16T09:19:37;4.50;;;2.10;;
69730;SDS011;56996;48.138;11.538;2022-10-16T09:22:18;5.10;;;2.50;;
69730;SDS011;56996;48.138;11.538;2022-10-16T09:24:48;5.40;;;2.70;;
69730;SDS011;56996;48.138;11.538;2022-10-16T09:27:15;4.30;;;2.20;;
69730;SDS011;56996;48.138;11.538;2022-10-16T09:29:42;5.70;;;2.90;;
69730;SDS011;56996;48.138;11.538;2022-10-16T09:32:19;4.90;;;2.90;;
69730;SDS011;56996;48.138;11.538;2022-10-16T09:34:50;5.30;;;3.20;;
69730;SDS011;56996;48.138;11.538;2022-10-16T09:37:19;5.90;;;3.10;;
69730;SDS011;56996;48.138;11.538;2022-10-16T09:39:51;5.00;;;3.50;;
69730;SDS011;56996;48.138;11.538;2022-10-16T09:42:22;6.70;;;3.40;;
69730;SDS011;56996;48.138;11.538;2022-10-16T09:44:53;5.00;;;3.30;;
69730;SDS011;56996;48.138;11.538;2022-10-16T09:47:27;4.90;;;3.20;;
69730;SDS011;56996;48.138;11.538;2022-10-16T09:50:05;5.20;;;3.90;;
69730;SDS011;56996;48.138;11.538;2022-10-16T09:53:10;5.40;;;4.00;;
69730;SDS011;56996;48.138;11.538;2022-10-16T09:55:48;5.50;;;4.00;;
69730;SDS011;56996;48.138;11.538;2022-10-16T09:58:16;5.50;;;4.50;;
69730;SDS011;56996;48.138;11.538;2022-10-16T10:00:50;5.90;;;4.20;;
69730;SDS011;56996;48.138;11.538;2022-10-16T10:03:39;6.10;;;4.30;;
69730;SDS011;56996;48.138;11.538;2022-10-16T10:06:28;5.70;;;5.10;;
69730;SDS011;56996;48.138;11.538;2022-10-16T10:09:00;5.40;;;4.30;;
69730;SDS011;56996;48.138;11.538;2022-10-16T10:11:58;5.60;;;4.40;;
69730;SDS011;56996;48.138;11.538;2022-10-16T10:14:35;5.50;;;4.20;;
69730;SDS011;56996;48.138;11.538;2022-10-16T10:19:44;5.10;;;3.80;;
69730;SDS011;56996;48.138;11.538;2022-10-16T10:22:30;6.50;;;3.40;;
69730;SDS011;56996;48.138;11.538;2022-10-16T10:27:50;4.90;;;2.60;;
69730;SDS011;56996;48.138;11.538;2022-10-16T10:30:42;5.00;;;2.40;;
69730;SDS011;56996;48.138;11.538;2022-10-16T10:36:37;5.40;;;2.30;;
69730;SDS011;56996;48.138;11.538;2022-10-16T10:39:20;4.60;;;1.70;;
69730;SDS011;56996;48.138;11.538;2022-10-16T10:42:17;4.90;;;1.80;;
69730;SDS011;56996;48.138;11.538;2022-10-16T10:50:57;4.70;;;2.00;;
69730;SDS011;56996;48.138;11.538;2022-10-16T10:54:01;4.50;;;1.50;;
69730;SDS011;56996;48.138;11.538;2022-10-16T11:05:46;3.30;;;1.30;;
69730;SDS011;56996;48.138;11.538;2022-10-16T11:08:39;3.90;;;1.40;;
69730;SDS011;56996;48.138;11.538;2022-10-16T11:11:15;5.70;;;1.40;;
69730;SDS011;56996;48.138;11.538;2022-10-16T11:14:06;3.30;;;1.20;;
69730;SDS011;56996;48.138;11.538;2022-10-16T11:16:58;4.30;;;1.50;;
69730;SDS011;56996;48.138;11.538;2022-10-16T11:22:29;4.30;;;1.30;;
69730;SDS011;56996;48.138;11.538;2022-10-16T11:25:27;5.00;;;1.40;;
69730;SDS011;56996;48.138;11.538;2022-10-16T11:28:16;2.80;;;1.10;;
69730;SDS011;56996;48.138;11.538;2022-10-16T11:33:54;3.50;;;1.00;;
69730;SDS011;56996;48.138;11.538;2022-10-16T11:36:39;3.10;;;0.90;;
69730;SDS011;56996;48.138;11.538;2022-10-16T11:39:24;2.80;;;0.90;;
69730;SDS011;56996;48.138;11.538;2022-10-16T11:41:55;1.90;;;0.70;;
69730;SDS011;56996;48.138;11.538;2022-10-16T11:45:07;2.60;;;0.90;;
69730;SDS011;56996;48.138;11.538;2022-10-16T11:47:53;3.00;;;0.80;;
69730;SDS011;56996;48.138;11.538;2022-10-16T11:56:32;3.90;;;1.20;;
69730;SDS011;56996;48.138;11.538;2022-10-16T11:59:24;4.70;;;1.40;;
69730;SDS011;56996;48.138;11.538;2022-10-16T12:08:05;3.90;;;1.10;;
69730;SDS011;56996;48.138;11.538;2022-10-16T12:10:36;5.10;;;1.10;;
69730;SDS011;56996;48.138;11.538;2022-10-16T12:13:05;3.30;;;1.10;;
69730;SDS011;56996;48.138;11.538;2022-10-16T12:18:39;3.30;;;1.00;;
69730;SDS011;56996;48.138;11.538;2022-10-16T12:21:08;4.40;;;0.90;;
69730;SDS011;56996;48.138;11.538;2022-10-16T12:23:38;3.50;;;0.90;;
69730;SDS011;56996;48.138;11.538;2022-10-16T12:26:12;3.40;;;1.10;;
69730;SDS011;56996;48.138;11.538;2022-10-16T12:28:39;3.20;;;0.90;;
69730;SDS011;56996;48.138;11.538;2022-10-16T12:31:08;4.40;;;1.30;;
69730;SDS011;56996;48.138;11.538;2022-10-16T12:33:53;4.90;;;1.30;;
69730;SDS011;56996;48.138;11.538;2022-10-16T12:36:30;3.90;;;1.10;;
69730;SDS011;56996;48.138;11.538;2022-10-16T12:38:59;3.50;;;1.10;;
69730;SDS011;56996;48.138;11.538;2022-10-16T12:41:36;3.60;;;1.00;;
69730;SDS011;56996;48.138;11.538;2022-10-16T12:44:23;3.80;;;1.40;;
69730;SDS011;56996;48.138;11.538;2022-10-16T12:46:50;4.50;;;1.30;;
69730;SDS011;56996;48.138;11.538;2022-10-16T12:49:36;3.30;;;1.00;;
69730;SDS011;56996;48.138;11.538;2022-10-16T12:52:24;3.30;;;1.00;;
69730;SDS011;56996;48.138;11.538;2022-10-16T12:54:57;5.00;;;1.30;;
69730;SDS011;56996;48.138;11.538;2022-10-16T13:00:43;2.30;;;0.80;;
69730;SDS011;56996;48.138;11.538;2022-10-16T13:03:54;3.00;;;0.90;;
69730;SDS011;56996;48.138;11.538;2022-10-16T13:07:09;3.30;;;1.00;;
69730;SDS011;56996;48.138;11.538;2022-10-16T13:09:58;4.60;;;1.10;;
69730;SDS011;56996;48.138;11.538;2022-10-16T13:13:02;4.80;;;1.60;;
69730;SDS011;56996;48.138;11.538;2022-10-16T13:15:55;5.80;;;1.40;;
69730;SDS011;56996;48.138;11.538;2022-10-16T13:18:43;4.50;;;1.30;;
69730;SDS011;56996;48.138;11.538;2022-10-16T13:30:32;3.70;;;0.80;;
69730;SDS011;56996;48.138;11.538;2022-10-16T13:33:04;3.60;;;0.90;;
69730;SDS011;56996;48.138;11.538;2022-10-16T13:35:35;3.10;;;0.80;;
69730;SDS011;56996;48.138;11.538;2022-10-16T13:38:24;4.20;;;1.00;;
69730;SDS011;56996;48.138;11.538;2022-10-16T13:41:03;3.90;;;1.00;;
69730;SDS011;56996;48.138;11.538;2022-10-16T13:46:25;3.60;;;0.90;;
69730;SDS011;56996;48.138;11.538;2022-10-16T13:49:05;3.70;;;1.20;;
69730;SDS011;56996;48.138;11.538;2022-10-16T13:51:38;2.80;;;0.90;;
69730;SDS011;56996;48.138;11.538;2022-10-16T13:54:04;3.10;;;0.90;;
69730;SDS011;56996;48.138;11.538;2022-10-16T13:56:32;3.50;;;1.10;;
69730;SDS011;56996;48.138;11.538;2022-10-16T13:59:23;1.70;;;0.80;;
69730;SDS011;56996;48.138;11.538;2022-10-16T14:02:28;2.40;;;0.70;;
69730;SDS011;56996;48.138;11.538;2022-10-16T14:04:58;2.60;;;0.70;;
69730;SDS011;56996;48.138;11.538;2022-10-16T14:07:28;4.20;;;0.80;;
69730;SDS011;56996;48.138;11.538;2022-10-16T14:10:02;2.30;;;0.60;;
69730;SDS011;56996;48.138;11.538;2022-10-16T14:12:31;4.80;;;1.00;;
69730;SDS011;56996;48.138;11.538;2022-10-16T14:14:59;3.50;;;0.80;;
69730;SDS011;56996;48.138;11.538;2022-10-16T14:17:35;2.50;;;0.70;;
69730;SDS011;56996;48.138;11.538;2022-10-16T14:20:05;1.90;;;0.60;;
69730;SDS011;56996;48.138;11.538;2022-10-16T14:22:38;2.60;;;0.60;;
69730;SDS011;56996;48.138;11.538;2022-10-16T14:28:00;2.50;;;0.90;;
69730;SDS011;56996;48.138;11.538;2022-10-16T14:30:35;3.10;;;0.80;;
69730;SDS011;56996;48.138;11.538;2022-10-16T14:36:11;3.10;;;0.90;;
69730;SDS011;56996;48.138;11.538;2022-10-16T14:41:24;4.90;;;1.20;;
69730;SDS011;56996;48.138;11.538;2022-10-16T14:43:56;5.00;;;1.20;;
69730;SDS011;56996;48.138;11.538;2022-10-16T14:46:31;5.20;;;1.50;;
69730;SDS011;56996;48.138;11.538;2022-10-16T14:49:16;4.60;;;1.10;;
69730;SDS011;56996;48.138;11.538;2022-10-16T14:51:46;4.90;;;1.10;;
69730;SDS011;56996;48.138;11.538;2022-10-16T14:54:15;4.40;;;1.40;;
69730;SDS011;56996;48.138;11.538;2022-10-16T14:59:28;4.80;;;1.50;;
69730;SDS011;56996;48.138;11.538;2022-10-16T15:01:57;3.80;;;1.10;;
69730;SDS011;56996;48.138;11.538;2022-10-16T15:04:24;3.90;;;1.20;;
69730;SDS011;56996;48.138;11.538;2022-10-16T15:06:50;3.60;;;1.20;;
69730;SDS011;56996;48.138;11.538;2022-10-16T15:09:17;6.40;;;1.80;;
69730;SDS011;56996;48.138;11.538;2022-10-16T15:11:44;4.80;;;1.50;;
69730;SDS011;56996;48.138;11.538;2022-10-16T15:14:13;2.50;;;0.80;;
69730;SDS011;56996;48.138;11.538;2022-10-16T15:16:45;4.70;;;1.40;;
69730;SDS011;56996;48.138;11.538;2022-10-16T15:19:12;4.60;;;1.20;;
69730;SDS011;56996;48.138;11.538;2022-10-16T15:21:38;3.10;;;1.00;;
69730;SDS011;56996;48.138;11.538;2022-10-16T15:24:09;3.10;;;0.80;;
69730;SDS011;56996;48.138;11.538;2022-10-16T15:26:44;3.10;;;1.00;;
69730;SDS011;56996;48.138;11.538;2022-10-16T15:29:12;3.20;;;0.80;;
69730;SDS011;56996;48.138;11.538;2022-10-16T15:31:39;3.90;;;1.10;;
69730;SDS011;56996;48.138;11.538;2022-10-16T15:34:09;4.10;;;1.00;;
69730;SDS011;56996;48.138;11.538;2022-10-16T15:36:37;2.50;;;0.80;;
69730;SDS011;56996;48.138;11.538;2022-10-16T15:39:17;3.80;;;0.90;;
69730;SDS011;56996;48.138;11.538;2022-10-16T15:41:47;4.30;;;1.20;;
69730;SDS011;56996;48.138;11.538;2022-10-16T15:44:20;5.40;;;1.00;;
69730;SDS011;56996;48.138;11.538;2022-10-16T15:46:54;3.80;;;1.00;;
69730;SDS011;56996;48.138;11.538;2022-10-16T15:49:21;4.70;;;1.10;;
69730;SDS011;56996;48.138;11.538;2022-10-16T15:51:47;4.90;;;1.60;;
69730;SDS011;56996;48.138;11.538;2022-10-16T15:54:14;4.10;;;1.10;;
69730;SDS011;56996;48.138;11.538;2022-10-16T15:56:41;4.40;;;1.10;;
69730;SDS011;56996;48.138;11.538;2022-10-16T15:59:08;4.50;;;1.00;;
69730;SDS011;56996;48.138;11.538;2022-10-16T16:01:35;4.20;;;1.10;;
69730;SDS011;56996;48.138;11.538;2022-10-16T16:04:02;4.10;;;1.10;;
69730;SDS011;56996;48.138;11.538;2022-10-16T16:06:41;4.30;;;1.00;;
69730;SDS011;56996;48.138;11.538;2022-10-16T16:09:13;7.30;;;1.70;;
69730;SDS011;56996;48.138;11.538;2022-10-16T16:11:40;5.60;;;1.50;;
69730;SDS011;56996;48.138;11.538;2022-10-16T16:14:10;6.20;;;1.80;;
69730;SDS011;56996;48.138;11.538;2022-10-16T16:16:39;4.80;;;1.40;;
69730;SDS011;56996;48.138;11.538;2022-10-16T16:19:05;5.40;;;1.50;;
69730;SDS011;56996;48.138;11.538;2022-10-16T16:21:38;9.80;;;1.90;;
69730;SDS011;56996;48.138;11.538;2022-10-16T16:24:05;6.90;;;1.60;;
69730;SDS011;56996;48.138;11.538;2022-10-16T16:26:35;5.50;;;1.60;;
69730;SDS011;56996;48.138;11.538;2022-10-16T16:29:06;3.90;;;1.10;;
69730;SDS011;56996;48.138;11.538;2022-10-16T16:31:33;4.40;;;1.60;;
69730;SDS011;56996;48.138;11.538;2022-10-16T16:34:01;5.10;;;1.40;;
69730;SDS011;56996;48.138;11.538;2022-10-16T16:36:28;5.40;;;1.70;;
69730;SDS011;56996;48.138;11.538;2022-10-16T16:38:56;4.50;;;1.50;;
69730;SDS011;56996;48.138;11.538;2022-10-16T16:41:26;6.80;;;1.80;;
69730;SDS011;56996;48.138;11.538;2022-10-16T16:43:54;5.90;;;2.10;;